Time;durP1;ratioP1;P1;durP2;ratioP2;P2;SDS_P1;SDS_P2;PMS_P1;PMS_P2;Temp;Humidity;BMP_temperature;BMP_pressure;BME280_temperature;BME280_humidity;BME280_pressure;Samples;Min_cycle;Max_cycle;Signal;HPM_P1;HPM_P2
2022/09/15 00:00:17;;;;;;;44.90;42.17;;;17.00;99.90;;;;;;4954737;29;20177;-78
2022/09/15 00:02:44;;;;;;;28.70;26.80;;;17.00;99.90;;;;;;4954231;29;20213;-78
2022/09/15 00:05:10;;;;;;;26.23;24.77;;;17.00;99.90;;;;;;4955257;29;20182;-78
2022/09/15 00:07:36;;;;;;;16.63;14.47;;;17.10;99.90;;;;;;4956222;28;20190;-78
2022/09/15 00:10:04;;;;;;;22.67;21.20;;;17.10;99.90;;;;;;4956178;29;20182;-78
2022/09/15 00:12:32;;;;;;;12.13;11.23;;;17.10;99.90;;;;;;4959153;28;20555;-77
2022/09/15 00:14:58;;;;;;;15.73;14.83;;;17.10;99.90;;;;;;4956771;28;20185;-78
2022/09/15 00:17:24;;;;;;;38.83;36.63;;;17.10;99.90;;;;;;4956255;29;20241;-78
2022/09/15 00:19:50;;;;;;;77.33;73.20;;;17.10;99.90;;;;;;4960234;28;20546;-79
2022/09/15 00:22:18;;;;;;;64.73;60.87;;;17.10;99.90;;;;;;4957806;28;20338;-78
2022/09/15 00:24:45;;;;;;;58.50;55.00;;;17.10;99.90;;;;;;4955542;29;20191;-78
2022/09/15 00:27:11;;;;;;;48.47;44.83;;;17.00;99.90;;;;;;4955674;28;20213;-78
2022/09/15 00:29:37;;;;;;;48.70;46.00;;;17.00;99.90;;;;;;4968987;29;20244;-77
2022/09/15 00:32:03;;;;;;;37.47;35.27;;;17.00;99.90;;;;;;4969754;29;20241;-78
2022/09/15 00:34:29;;;;;;;29.93;28.07;;;16.90;99.90;;;;;;4956444;29;20186;-79
2022/09/15 00:36:55;;;;;;;21.57;20.00;;;17.00;99.90;;;;;;4955445;28;20228;-78
2022/09/15 00:39:21;;;;;;;36.50;34.10;;;16.90;99.90;;;;;;4957842;29;20740;-80
2022/09/15 00:41:47;;;;;;;31.43;29.63;;;17.00;99.90;;;;;;4958108;29;20205;-79
2022/09/15 00:44:15;;;;;;;37.13;34.73;;;17.00;99.90;;;;;;4959377;29;20193;-79
2022/09/15 00:46:45;;;;;;;28.17;26.30;;;17.00;99.90;;;;;;4957074;29;20189;-77
2022/09/15 00:49:13;;;;;;;41.33;38.67;;;17.00;99.90;;;;;;4955294;28;20702;-77
2022/09/15 00:52:16;;;;;;;58.83;55.43;;;16.90;99.90;;;;;;4953661;29;20371;-77
2022/09/15 00:54:46;;;;;;;54.83;51.90;;;16.90;99.90;;;;;;4953095;29;20686;-76
2022/09/15 00:57:21;;;;;;;64.67;60.97;;;16.90;99.90;;;;;;4953064;28;20240;-77
2022/09/15 00:59:48;;;;;;;53.77;50.60;;;16.90;99.90;;;;;;4953599;28;20178;-77
2022/09/15 01:02:23;;;;;;;46.07;43.23;;;16.90;99.90;;;;;;4953262;28;20217;-76
2022/09/15 01:04:51;;;;;;;38.70;36.60;;;16.90;99.90;;;;;;4953762;28;20546;-77
2022/09/15 01:07:42;;;;;;;57.07;53.87;;;16.90;99.90;;;;;;4953684;28;20193;-77
2022/09/15 01:10:18;;;;;;;42.60;40.17;;;16.90;99.90;;;;;;4944912;29;20670;-77
2022/09/15 01:12:44;;;;;;;36.10;34.00;;;16.90;99.90;;;;;;4953633;28;20233;-77
2022/09/15 01:15:10;;;;;;;70.23;66.27;;;16.90;99.90;;;;;;4953838;28;20189;-77
2022/09/15 01:17:47;;;;;;;129.00;122.10;;;16.90;99.90;;;;;;4951492;29;20206;-76
2022/09/15 01:20:35;;;;;;;155.33;146.90;;;17.00;99.90;;;;;;4963302;29;20185;-75
2022/09/15 01:23:29;;;;;;;164.53;155.37;;;17.10;99.90;;;;;;4962125;28;20206;-76
2022/09/15 01:26:26;;;;;;;123.53;116.53;;;17.10;99.90;;;;;;4953054;28;20185;-76
2022/09/15 01:29:31;;;;;;;186.53;175.37;;;17.10;99.90;;;;;;4951107;29;20686;-76
2022/09/15 01:35:09;;;;;;;207.77;194.60;;;17.00;99.90;;;;;;4953337;29;20208;-76
2022/09/15 01:37:42;;;;;;;188.07;176.90;;;17.00;99.90;;;;;;4950817;29;20244;-76
2022/09/15 01:40:09;;;;;;;210.67;197.83;;;17.10;99.90;;;;;;4951728;29;20540;-76
2022/09/15 01:42:36;;;;;;;153.87;144.30;;;17.10;99.90;;;;;;4953358;28;20701;-77
2022/09/15 01:45:13;;;;;;;121.60;114.47;;;17.10;99.90;;;;;;4953470;28;20231;-76
2022/09/15 01:47:40;;;;;;;112.67;106.17;;;17.10;99.90;;;;;;4951870;29;20268;-76
2022/09/15 01:50:09;;;;;;;93.63;88.50;;;17.20;99.90;;;;;;4952395;28;20616;-77
2022/09/15 01:52:38;;;;;;;176.90;166.80;;;17.20;99.90;;;;;;4953002;29;20212;-76
2022/09/15 01:55:15;;;;;;;285.10;268.47;;;17.20;99.90;;;;;;4952762;28;20217;-76
2022/09/15 01:57:41;;;;;;;241.77;228.40;;;17.30;99.90;;;;;;4952101;28;20603;-76
2022/09/15 02:00:08;;;;;;;243.67;229.70;;;17.30;99.90;;;;;;4953097;28;20178;-76
2022/09/15 02:02:41;;;;;;;322.23;303.93;;;17.40;99.90;;;;;;4951791;28;20213;-76
2022/09/15 02:05:35;;;;;;;149.90;142.03;;;17.40;99.90;;;;;;4951969;29;20298;-76
2022/09/15 02:08:11;;;;;;;98.10;93.13;;;17.50;99.90;;;;;;4950886;29;20213;-76
2022/09/15 02:10:49;;;;;;;86.87;82.33;;;17.50;99.90;;;;;;4952714;28;20188;-76
2022/09/15 02:13:24;;;;;;;292.80;277.27;;;17.60;99.90;;;;;;4951741;29;20559;-76
2022/09/15 02:15:56;;;;;;;290.07;273.37;;;17.60;99.90;;;;;;4951872;29;20217;-77
2022/09/15 02:18:44;;;;;;;16.43;15.23;;;17.70;99.90;;;;;;4952234;28;20273;-76
2022/09/15 02:21:22;;;;;;;41.73;39.30;;;17.60;99.90;;;;;;4953059;29;20186;-76
2022/09/15 02:23:53;;;;;;;45.43;43.13;;;17.70;99.90;;;;;;4953329;28;20209;-76
2022/09/15 02:26:24;;;;;;;43.17;40.50;;;17.70;99.90;;;;;;4952470;29;20189;-78
2022/09/15 02:28:52;;;;;;;72.50;68.73;;;17.70;99.90;;;;;;4951750;29;20715;-77
2022/09/15 02:31:21;;;;;;;50.60;47.77;;;17.80;99.90;;;;;;4950961;29;20348;-78
2022/09/15 02:34:01;;;;;;;79.53;75.30;;;17.90;99.90;;;;;;4951310;29;20300;-77
2022/09/15 02:36:29;;;;;;;122.67;116.33;;;17.90;99.90;;;;;;4951492;29;20217;-77
2022/09/15 02:39:02;;;;;;;39.40;37.40;;;17.90;99.90;;;;;;4952339;28;20182;-77
2022/09/15 02:41:28;;;;;;;15.40;14.60;;;18.00;99.90;;;;;;4956441;28;20185;-77
2022/09/15 02:43:54;;;;;;;55.60;52.80;;;18.00;99.90;;;;;;4956734;28;20174;-78
2022/09/15 02:46:21;;;;;;;51.60;48.90;;;18.00;99.90;;;;;;4956587;29;20272;-78
2022/09/15 02:48:47;;;;;;;21.53;20.33;;;18.00;99.90;;;;;;4957636;29;20272;-78
2022/09/15 02:51:15;;;;;;;22.23;21.07;;;18.00;99.90;;;;;;4957685;29;20667;-78
2022/09/15 02:53:43;;;;;;;11.53;10.70;;;18.00;99.90;;;;;;4957999;28;20265;-78
2022/09/15 02:56:09;;;;;;;10.30;9.60;;;18.00;99.90;;;;;;4957066;28;20209;-78
2022/09/15 02:58:35;;;;;;;8.70;8.10;;;18.10;99.90;;;;;;4959534;29;20674;-78
2022/09/15 03:01:05;;;;;;;15.20;14.33;;;18.00;99.90;;;;;;4960356;28;20181;-78
2022/09/15 03:03:33;;;;;;;28.87;27.40;;;18.00;99.90;;;;;;4982094;23;20241;-79
2022/09/15 03:06:15;;;;;;;91.37;86.67;;;18.00;99.90;;;;;;4959899;28;20726;-79
2022/09/15 03:08:53;;;;;;;96.97;92.00;;;18.00;99.90;;;;;;4952937;28;20176;-79
2022/09/15 03:11:21;;;;;;;116.10;110.00;;;18.00;99.90;;;;;;4952737;28;20189;-80
2022/09/15 03:13:51;;;;;;;121.43;115.27;;;18.00;99.90;;;;;;4961989;28;20305;-80
2022/09/15 03:16:17;;;;;;;107.17;101.63;;;18.00;99.90;;;;;;4982471;28;20245;-79
2022/09/15 03:18:43;;;;;;;90.20;85.50;;;18.00;99.90;;;;;;4968050;28;20188;-79
2022/09/15 03:21:12;;;;;;;63.57;60.13;;;18.10;99.90;;;;;;4974808;28;20188;-80
2022/09/15 03:23:40;;;;;;;66.40;63.03;;;18.10;99.90;;;;;;4959732;29;20285;-80
2022/09/15 03:26:08;;;;;;;60.03;57.00;;;18.10;99.90;;;;;;4942454;29;20606;-79
2022/09/15 03:28:35;;;;;;;56.63;53.63;;;18.10;99.90;;;;;;4959010;28;20192;-80
2022/09/15 03:31:01;;;;;;;53.67;51.03;;;18.20;99.90;;;;;;4942855;29;20660;-80
2022/09/15 03:33:27;;;;;;;39.57;37.27;;;18.10;99.90;;;;;;4942867;29;20214;-80
2022/09/15 03:35:53;;;;;;;52.20;49.67;;;18.10;99.90;;;;;;4959213;29;20220;-80
2022/09/15 03:38:19;;;;;;;55.60;52.87;;;18.10;99.90;;;;;;4940780;29;20182;-78
2022/09/15 03:41:06;;;;;;;68.90;65.47;;;18.00;99.90;;;;;;4956236;29;20224;-79
2022/09/15 03:43:33;;;;;;;49.17;46.27;;;18.00;99.90;;;;;;4956015;29;20344;-78
2022/09/15 03:45:59;;;;;;;67.13;63.87;;;18.00;99.90;;;;;;4957383;29;20528;-80
2022/09/15 03:48:26;;;;;;;52.93;50.23;;;18.00;99.90;;;;;;4956579;28;20221;-79
2022/09/15 03:50:52;;;;;;;60.33;57.33;;;18.00;99.90;;;;;;4957591;28;20217;-79
2022/09/15 03:53:19;;;;;;;55.57;52.67;;;18.00;99.90;;;;;;4939918;29;20757;-78
2022/09/15 03:55:47;;;;;;;53.03;50.37;;;18.00;99.90;;;;;;4955980;29;20194;-78
2022/09/15 03:58:13;;;;;;;35.33;33.50;;;18.00;99.90;;;;;;4937591;29;20185;-79
2022/09/15 04:00:40;;;;;;;34.87;33.03;;;18.00;99.90;;;;;;4938374;29;20181;-78
2022/09/15 04:03:06;;;;;;;31.57;30.00;;;18.10;99.90;;;;;;4937801;29;20217;-79
2022/09/15 04:05:32;;;;;;;37.97;35.97;;;18.10;99.90;;;;;;4956023;29;20216;-79
2022/09/15 04:07:59;;;;;;;61.17;58.27;;;18.10;99.90;;;;;;4955635;28;20185;-73
2022/09/15 04:10:25;;;;;;;66.00;62.67;;;18.20;99.90;;;;;;4954338;28;20186;-75
2022/09/15 04:12:53;;;;;;;69.60;66.23;;;18.20;99.90;;;;;;4936692;29;20582;-74
2022/09/15 04:15:20;;;;;;;50.03;47.23;;;18.20;99.90;;;;;;4948627;28;20738;-75
2022/09/15 04:17:46;;;;;;;47.90;45.27;;;18.30;99.90;;;;;;4952684;29;20248;-75
2022/09/15 04:20:13;;;;;;;37.70;35.50;;;18.30;99.90;;;;;;4936791;29;20813;-75
2022/09/15 04:22:39;;;;;;;38.27;36.03;;;18.30;99.90;;;;;;4952950;28;20208;-75
2022/09/15 04:25:06;;;;;;;36.20;34.30;;;18.30;99.90;;;;;;4937186;29;20182;-75
2022/09/15 04:27:34;;;;;;;26.07;24.63;;;18.40;99.90;;;;;;4953364;29;20689;-75
2022/09/15 04:30:00;;;;;;;16.20;15.17;;;18.40;99.90;;;;;;4935378;29;20182;-74
2022/09/15 04:32:28;;;;;;;9.93;9.43;;;18.40;99.90;;;;;;4936824;29;20721;-75
2022/09/15 04:34:54;;;;;;;15.67;14.87;;;18.40;99.90;;;;;;4937389;29;20564;-74
2022/09/15 04:37:21;;;;;;;39.50;37.43;;;18.40;99.90;;;;;;4952602;28;20209;-75
2022/09/15 04:39:47;;;;;;;46.80;44.40;;;18.40;99.90;;;;;;4953956;29;20181;-74
2022/09/15 04:42:13;;;;;;;44.93;42.47;;;18.50;99.90;;;;;;4953856;29;20197;-77
2022/09/15 04:44:40;;;;;;;40.67;38.57;;;18.50;99.90;;;;;;4936247;29;20177;-74
2022/09/15 04:47:06;;;;;;;54.87;51.67;;;18.50;99.90;;;;;;4953531;28;20202;-74
2022/09/15 04:49:32;;;;;;;31.00;29.00;;;18.50;99.90;;;;;;4936452;29;20237;-74
2022/09/15 04:51:58;;;;;;;21.60;20.13;;;18.50;99.90;;;;;;4952995;28;20888;-76
2022/09/15 04:54:24;;;;;;;10.27;9.67;;;18.50;99.90;;;;;;4953386;28;20276;-75
2022/09/15 04:56:50;;;;;;;24.30;22.73;;;18.50;99.90;;;;;;4953264;29;20213;-74
2022/09/15 04:59:18;;;;;;;60.63;57.03;;;18.40;99.90;;;;;;4953083;29;20288;-75
2022/09/15 05:01:44;;;;;;;37.53;35.60;;;18.20;99.90;;;;;;4952986;28;20204;-74
2022/09/15 05:04:10;;;;;;;62.23;59.13;;;17.90;99.90;;;;;;4953467;29;20668;-75
2022/09/15 05:06:37;;;;;;;62.03;58.80;;;17.70;99.90;;;;;;4935747;29;20606;-74
2022/09/15 05:09:05;;;;;;;15.70;14.87;;;17.70;99.90;;;;;;4952683;29;20647;-74
2022/09/15 05:11:31;;;;;;;15.33;14.43;;;17.70;99.90;;;;;;4953805;29;20186;-75
2022/09/15 05:13:58;;;;;;;35.10;33.17;;;17.70;99.90;;;;;;4952885;29;20201;-74
2022/09/15 05:16:27;;;;;;;117.03;111.03;;;17.70;99.90;;;;;;4954029;29;20228;-75
2022/09/15 05:18:56;;;;;;;169.37;160.63;;;17.70;99.90;;;;;;4952826;29;20224;-75
2022/09/15 05:21:22;;;;;;;189.47;179.90;;;17.70;99.90;;;;;;4953454;29;20229;-75
2022/09/15 05:23:50;;;;;;;129.93;123.07;;;17.80;99.90;;;;;;4953506;29;20193;-75
2022/09/15 05:26:25;;;;;;;137.73;130.60;;;17.90;99.90;;;;;;4953309;29;20204;-75
2022/09/15 05:28:52;;;;;;;50.80;48.07;;;17.90;99.90;;;;;;4940039;28;20717;-74
2022/09/15 05:31:23;;;;;;;35.40;33.60;;;17.90;99.90;;;;;;4940653;29;20354;-77
2022/09/15 05:33:50;;;;;;;17.27;16.37;;;18.00;99.90;;;;;;4951509;28;20631;-74
2022/09/15 05:36:17;;;;;;;16.37;15.57;;;18.00;99.90;;;;;;4952178;28;20205;-75
2022/09/15 05:38:43;;;;;;;18.73;17.50;;;17.90;99.90;;;;;;4951670;29;20220;-75
2022/09/15 05:41:12;;;;;;;25.97;24.77;;;17.90;99.90;;;;;;4922037;29;20238;-74
2022/09/15 05:43:39;;;;;;;36.33;34.57;;;17.90;99.90;;;;;;4932415;29;20252;-75
2022/09/15 05:46:06;;;;;;;24.67;23.37;;;18.00;99.90;;;;;;4915585;29;20187;-74
2022/09/15 05:48:33;;;;;;;25.90;24.67;;;18.00;99.90;;;;;;4932839;29;20664;-74
2022/09/15 05:50:59;;;;;;;19.83;18.53;;;18.10;99.90;;;;;;4934150;29;20272;-74
2022/09/15 05:53:25;;;;;;;18.83;17.77;;;18.10;99.90;;;;;;4952029;29;20695;-74
2022/09/15 05:56:00;;;;;;;18.10;17.07;;;18.00;99.90;;;;;;4953253;29;20217;-74
2022/09/15 05:58:26;;;;;;;65.83;62.43;;;17.80;99.90;;;;;;4952766;29;20181;-75
2022/09/15 06:00:52;;;;;;;159.83;151.77;;;17.70;99.90;;;;;;4952448;29;20178;-74
2022/09/15 06:03:18;;;;;;;174.30;165.47;;;17.60;99.90;;;;;;4935745;29;20225;-74
2022/09/15 06:05:44;;;;;;;154.63;146.67;;;17.60;99.90;;;;;;4952707;29;20190;-74
2022/09/15 06:08:11;;;;;;;153.07;145.37;;;17.60;99.90;;;;;;4935450;29;20236;-74
2022/09/15 06:10:37;;;;;;;161.77;153.57;;;17.60;99.90;;;;;;4953044;29;20186;-74
2022/09/15 06:13:03;;;;;;;148.63;140.97;;;17.70;99.90;;;;;;4952222;28;20212;-74
2022/09/15 06:15:30;;;;;;;168.83;160.33;;;17.70;99.90;;;;;;4938812;29;20277;-75
2022/09/15 06:17:56;;;;;;;143.90;136.60;;;17.70;99.90;;;;;;4955781;29;20217;-74
2022/09/15 06:20:22;;;;;;;167.50;159.10;;;17.80;99.90;;;;;;4939401;29;20173;-74
2022/09/15 06:22:48;;;;;;;87.60;83.13;;;17.80;99.90;;;;;;4956577;29;20198;-75
2022/09/15 06:25:14;;;;;;;22.13;20.93;;;18.00;99.90;;;;;;4956684;29;20200;-75
2022/09/15 06:27:40;;;;;;;16.43;15.53;;;18.10;99.90;;;;;;4938998;29;20193;-74
2022/09/15 06:30:08;;;;;;;17.33;16.53;;;18.20;99.90;;;;;;4956602;29;20189;-74
2022/09/15 06:32:35;;;;;;;15.87;15.10;;;18.30;99.90;;;;;;4939067;29;20279;-74
2022/09/15 06:35:05;;;;;;;66.40;63.13;;;18.40;99.90;;;;;;4939164;29;20182;-77
2022/09/15 06:37:32;;;;;;;73.87;70.20;;;18.60;99.90;;;;;;4956055;29;20217;-74
2022/09/15 06:39:58;;;;;;;28.37;26.87;;;18.70;99.90;;;;;;4956770;29;20178;-72
2022/09/15 06:42:24;;;;;;;29.47;27.93;;;18.90;99.90;;;;;;4938469;29;20217;-75
2022/09/15 06:44:50;;;;;;;49.47;47.00;;;19.10;99.90;;;;;;4956121;28;20273;-74
2022/09/15 06:47:16;;;;;;;29.47;27.83;;;19.40;99.90;;;;;;4956043;28;20280;-74
2022/09/15 06:49:41;;;;;;;30.40;28.73;;;19.60;99.90;;;;;;4939101;29;20285;-75
2022/09/15 06:52:07;;;;;;;17.70;16.73;;;19.40;99.90;;;;;;4956122;29;20214;-76
2022/09/15 06:54:33;;;;;;;44.03;41.73;;;18.80;99.90;;;;;;4959743;29;20216;-77
2022/09/15 06:56:59;;;;;;;36.97;35.17;;;18.50;99.90;;;;;;4960924;29;20304;-77
2022/09/15 06:59:25;;;;;;;357.13;335.23;;;18.20;99.90;;;;;;4957915;29;20657;-78
2022/09/15 07:01:54;;;;;;;51.63;48.30;;;17.90;99.90;;;;;;4946578;28;20205;-78
2022/09/15 07:04:20;;;;;;;181.77;172.10;;;17.70;99.90;;;;;;4948455;29;20201;-78
2022/09/15 07:06:47;;;;;;;191.20;180.97;;;17.50;99.90;;;;;;4945639;29;20182;-78
2022/09/15 07:09:13;;;;;;;134.07;126.80;;;17.50;99.90;;;;;;4943247;29;20580;-79
2022/09/15 07:11:39;;;;;;;77.40;72.33;;;17.40;99.90;;;;;;4941348;29;20612;-78
2022/09/15 07:14:05;;;;;;;28.33;26.70;;;17.40;99.90;;;;;;4959553;28;20237;-83
2022/09/15 07:16:30;;;;;;;61.63;57.97;;;17.30;99.90;;;;;;4960727;29;20217;-82
2022/09/15 07:18:59;;;;;;;38.07;36.07;;;17.40;99.90;;;;;;4943471;29;20681;-82
2022/09/15 07:21:25;;;;;;;96.67;91.83;;;17.30;99.90;;;;;;4962542;29;20566;-83
2022/09/15 07:23:51;;;;;;;39.17;37.07;;;17.30;99.90;;;;;;4943384;29;20197;-81
2022/09/15 07:26:25;;;;;;;222.83;210.17;;;17.30;99.90;;;;;;4942700;29;20718;-83
2022/09/15 07:28:55;;;;;;;162.27;153.17;;;17.20;99.90;;;;;;4960189;29;20275;-82
2022/09/15 07:31:23;;;;;;;232.87;218.90;;;17.20;99.90;;;;;;4959639;28;20546;-83
2022/09/15 07:33:49;;;;;;;185.80;174.27;;;17.20;99.90;;;;;;4945521;29;20205;-83
2022/09/15 07:36:16;;;;;;;129.83;122.67;;;17.20;99.90;;;;;;4942310;29;20225;-78
2022/09/15 07:38:44;;;;;;;51.80;47.97;;;17.20;99.90;;;;;;4956849;29;20272;-78
2022/09/15 07:41:17;;;;;;;37.93;35.60;;;17.30;99.90;;;;;;4941763;29;20553;-81
2022/09/15 07:43:47;;;;;;;36.00;33.93;;;17.30;99.90;;;;;;4962658;28;20296;-76
2022/09/15 07:46:13;;;;;;;103.37;97.63;;;17.40;99.90;;;;;;4945686;29;20193;-79
2022/09/15 07:48:39;;;;;;;70.07;66.37;;;17.50;99.90;;;;;;4941187;29;20604;-78
2022/09/15 07:51:05;;;;;;;60.47;57.13;;;17.50;99.90;;;;;;4959200;29;20253;-80
2022/09/15 07:53:31;;;;;;;49.57;46.90;;;17.60;99.90;;;;;;4941453;29;20840;-80
2022/09/15 07:55:57;;;;;;;128.70;121.77;;;17.70;99.90;;;;;;4958188;28;21746;-75
2022/09/15 07:58:23;;;;;;;78.17;74.17;;;17.80;99.90;;;;;;4940783;29;20193;-79
2022/09/15 08:00:49;;;;;;;102.70;97.07;;;17.90;99.90;;;;;;4957657;29;20217;-79
2022/09/15 08:03:15;;;;;;;123.30;117.00;;;18.00;99.90;;;;;;4957694;28;20269;-77
2022/09/15 08:05:41;;;;;;;128.13;120.97;;;18.10;99.90;;;;;;4956036;29;20177;-80
2022/09/15 08:08:07;;;;;;;110.07;103.93;;;18.20;99.90;;;;;;4939638;29;20276;-78
2022/09/15 08:10:34;;;;;;;29.73;28.03;;;18.30;99.90;;;;;;4960001;29;20581;-84
2022/09/15 08:12:59;;;;;;;16.23;15.30;;;18.40;99.90;;;;;;4950919;29;20213;-73
2022/09/15 08:15:26;;;;;;;48.30;45.53;;;18.50;99.90;;;;;;4941368;29;20572;-77
2022/09/15 08:17:52;;;;;;;55.07;52.23;;;18.60;99.90;;;;;;4956348;29;20765;-78
2022/09/15 08:20:18;;;;;;;64.27;60.87;;;18.50;99.90;;;;;;4957605;28;20181;-74
2022/09/15 08:22:46;;;;;;;39.73;37.67;;;18.40;99.90;;;;;;4941286;29;20216;-83
2022/09/15 08:25:13;;;;;;;32.90;31.03;;;18.30;99.90;;;;;;4946180;29;20186;-79
2022/09/15 08:27:39;;;;;;;30.07;28.53;;;18.20;99.90;;;;;;4957894;29;20229;-80
2022/09/15 08:30:06;;;;;;;20.30;19.17;;;18.20;99.90;;;;;;4956266;29;20647;-79
2022/09/15 08:32:32;;;;;;;24.17;23.07;;;18.10;99.90;;;;;;4938920;29;20201;-77
2022/09/15 08:34:57;;;;;;;27.37;25.67;;;18.10;99.90;;;;;;4955580;29;20190;-77
2022/09/15 08:37:23;;;;;;;30.27;28.13;;;18.10;99.90;;;;;;4955720;28;20209;-80
2022/09/15 08:39:50;;;;;;;49.00;46.23;;;18.00;99.90;;;;;;4956533;29;20182;-80
2022/09/15 08:42:18;;;;;;;112.33;106.43;;;17.90;99.90;;;;;;4954562;29;20216;-75
2022/09/15 08:44:50;;;;;;;134.10;126.93;;;17.90;99.90;;;;;;4937540;29;20208;-76
2022/09/15 08:47:24;;;;;;;83.87;79.23;;;18.00;99.90;;;;;;4955794;29;20192;-76
2022/09/15 08:50:06;;;;;;;55.93;52.87;;;17.90;99.90;;;;;;4937361;29;20209;-76
2022/09/15 08:52:49;;;;;;;121.80;115.47;;;17.80;99.90;;;;;;4936734;29;20261;-75
2022/09/15 08:55:25;;;;;;;105.40;99.93;;;17.90;99.90;;;;;;4935011;29;20734;-76
2022/09/15 08:57:52;;;;;;;105.88;100.35;;;17.90;99.90;;;;;;4918278;29;20922;-76
2022/09/15 09:00:18;;;;;;;98.47;93.60;;;17.80;99.90;;;;;;4935204;29;20185;-77
2022/09/15 09:03:00;;;;;;;127.17;121.07;;;17.80;99.90;;;;;;4956372;23;20313;-76
2022/09/15 09:05:54;;;;;;;98.53;93.50;;;17.80;99.90;;;;;;4992736;28;20242;-75
2022/09/15 09:08:22;;;;;;;97.27;92.23;;;17.80;99.90;;;;;;4990893;28;20235;-76
2022/09/15 09:11:11;;;;;;;110.77;104.90;;;17.90;99.90;;;;;;4992693;28;20667;-76
2022/09/15 09:13:55;;;;;;;123.23;117.20;;;18.00;99.90;;;;;;4980488;28;20292;-75
2022/09/15 09:17:00;;;;;;;120.20;114.13;;;18.10;99.90;;;;;;4973961;28;20208;-75
2022/09/15 09:19:35;;;;;;;114.13;108.23;;;18.10;99.90;;;;;;4973140;28;20184;-75
2022/09/15 09:22:15;;;;;;;89.77;84.87;;;18.20;99.90;;;;;;4971848;28;20188;-75
2022/09/15 09:24:52;;;;;;;100.23;95.10;;;18.10;99.90;;;;;;4973178;28;20192;-76
2022/09/15 09:27:29;;;;;;;124.93;118.53;;;18.10;99.90;;;;;;4972513;28;20267;-75
2022/09/15 09:30:20;;;;;;;114.43;108.50;;;18.10;99.90;;;;;;4972768;28;20220;-75
2022/09/15 09:33:10;;;;;;;92.63;88.03;;;18.10;99.90;;;;;;4972752;28;20205;-75
2022/09/15 09:35:50;;;;;;;134.20;127.20;;;18.10;99.90;;;;;;4971637;28;20192;-74
2022/09/15 09:38:30;;;;;;;160.23;151.97;;;18.10;99.90;;;;;;4971579;28;20196;-73
2022/09/15 09:40:56;;;;;;;151.73;143.97;;;18.20;99.90;;;;;;4972748;28;20232;-73
2022/09/15 09:43:22;;;;;;;98.03;92.97;;;18.30;99.90;;;;;;4972311;28;20216;-72
2022/09/15 09:45:49;;;;;;;137.20;130.47;;;18.30;99.90;;;;;;4973089;28;20189;-73
2022/09/15 09:48:19;;;;;;;130.27;123.70;;;18.30;99.90;;;;;;4971983;28;20745;-75
2022/09/15 09:50:46;;;;;;;131.97;125.20;;;18.40;99.90;;;;;;4975847;28;20564;-75
2022/09/15 09:53:21;;;;;;;118.00;111.87;;;18.40;99.90;;;;;;4989035;28;20197;-75
2022/09/15 09:55:47;;;;;;;149.97;142.13;;;18.40;99.90;;;;;;4996725;28;20180;-78
2022/09/15 09:58:18;;;;;;;150.73;143.00;;;18.50;99.90;;;;;;4988991;28;20177;-78
2022/09/15 10:00:44;;;;;;;146.57;138.60;;;18.60;99.90;;;;;;4996872;28;20181;-80
2022/09/15 10:03:16;;;;;;;123.67;117.27;;;18.70;99.90;;;;;;4974525;28;20973;-80
2022/09/15 10:05:58;;;;;;;123.93;117.67;;;18.80;99.90;;;;;;4964712;28;20272;-79
2022/09/15 10:08:24;;;;;;;360.33;340.67;;;18.90;99.90;;;;;;4973700;28;20309;-77
2022/09/15 10:10:58;;;;;;;40.27;38.27;;;18.90;99.90;;;;;;4975727;28;20177;-78
2022/09/15 10:13:24;;;;;;;616.63;580.17;;;18.80;99.90;;;;;;4972974;28;20296;-76
2022/09/15 10:15:54;;;;;;;480.00;450.93;;;18.70;99.90;;;;;;4971797;28;20263;-74
2022/09/15 10:18:34;;;;;;;373.13;355.07;;;18.40;99.90;;;;;;4971910;28;20185;-75
2022/09/15 10:21:04;;;;;;;59.83;56.27;;;18.10;99.90;;;;;;4972409;28;20169;-76
2022/09/15 10:23:31;;;;;;;17.93;16.40;;;17.90;99.90;;;;;;4972148;28;20596;-76
2022/09/15 10:26:16;;;;;;;74.80;70.97;;;17.70;99.90;;;;;;4971092;28;20256;-76
2022/09/15 10:28:43;;;;;;;217.70;206.13;;;17.60;99.90;;;;;;4971830;28;20186;-77
2022/09/15 10:31:12;;;;;;;193.13;183.20;;;17.60;99.90;;;;;;4972279;28;20173;-77
2022/09/15 10:33:47;;;;;;;215.93;204.83;;;17.60;99.90;;;;;;4972247;28;20580;-77
2022/09/15 10:36:17;;;;;;;296.00;280.60;;;17.50;99.90;;;;;;4971047;28;20236;-76
2022/09/15 10:38:47;;;;;;;556.10;524.40;;;17.30;99.90;;;;;;4970641;28;20227;-76
2022/09/15 10:41:28;;;;;;;176.70;167.70;;;17.20;99.90;;;;;;4972125;28;20181;-77
2022/09/15 10:44:00;;;;;;;177.77;167.90;;;17.10;99.90;;;;;;4971893;28;20572;-76
2022/09/15 10:46:59;;;;;;;158.03;149.47;;;17.00;99.90;;;;;;4972204;28;20185;-75
2022/09/15 10:49:35;;;;;;;352.17;329.23;;;17.00;99.90;;;;;;4970949;28;20240;-76
2022/09/15 10:52:36;;;;;;;266.93;250.47;;;16.90;99.90;;;;;;4972093;28;20192;-75
2022/09/15 10:55:42;;;;;;;263.00;248.30;;;16.90;99.90;;;;;;4972307;28;20192;-76
2022/09/15 10:58:29;;;;;;;246.17;232.83;;;16.90;99.90;;;;;;4971495;28;20251;-76
2022/09/15 11:01:13;;;;;;;194.63;183.73;;;16.90;99.90;;;;;;4973948;28;20545;-76
2022/09/15 11:04:01;;;;;;;265.57;250.03;;;16.80;99.90;;;;;;4975326;28;20267;-77
2022/09/15 11:06:42;;;;;;;199.57;188.87;;;16.80;99.90;;;;;;4974837;28;20268;-77
2022/09/15 11:09:25;;;;;;;29.83;28.40;;;16.80;99.90;;;;;;4976785;28;20189;-76
2022/09/15 11:12:36;;;;;;;43.00;40.40;;;16.80;99.90;;;;;;4976810;28;20251;-77
2022/09/15 11:15:17;;;;;;;109.90;104.33;;;16.70;99.90;;;;;;4940147;28;20281;-78
2022/09/15 11:18:10;;;;;;;24.47;23.17;;;16.70;99.90;;;;;;4972095;28;20220;-77
2022/09/15 11:20:38;;;;;;;41.50;39.30;;;16.70;99.90;;;;;;4976907;28;20182;-77
2022/09/15 11:23:16;;;;;;;25.93;24.37;;;16.70;99.90;;;;;;4976823;28;20300;-78
2022/09/15 11:25:55;;;;;;;37.50;35.60;;;16.60;99.90;;;;;;4979043;28;20276;-80
2022/09/15 11:28:28;;;;;;;84.27;79.30;;;16.60;99.90;;;;;;4974753;28;20189;-78
2022/09/15 11:31:18;;;;;;;92.87;88.03;;;16.60;99.90;;;;;;4975486;28;20681;-78
2022/09/15 11:34:10;;;;;;;59.63;56.80;;;16.60;99.90;;;;;;4977021;28;20686;-78
2022/09/15 11:36:53;;;;;;;44.97;42.83;;;16.60;99.90;;;;;;4972018;28;20255;-79
2022/09/15 11:39:25;;;;;;;64.00;60.90;;;16.60;99.90;;;;;;4978844;28;20181;-78
2022/09/15 11:41:59;;;;;;;58.37;55.60;;;16.60;99.90;;;;;;4975839;28;20264;-79
2022/09/15 11:44:37;;;;;;;42.83;40.80;;;16.60;99.90;;;;;;4975058;28;20231;-78
2022/09/15 11:47:04;;;;;;;14.13;13.37;;;16.70;99.90;;;;;;4975983;28;20195;-79
2022/09/15 11:49:51;;;;;;;81.77;77.63;;;16.60;99.90;;;;;;4976274;28;20722;-77
2022/09/15 11:52:21;;;;;;;266.87;253.37;;;16.50;99.90;;;;;;4975385;28;20271;-79
2022/09/15 11:55:02;;;;;;;247.23;234.93;;;16.50;99.90;;;;;;4975966;28;20658;-80
2022/09/15 11:57:37;;;;;;;331.37;314.13;;;16.50;99.90;;;;;;4974737;28;20209;-75
2022/09/15 12:00:12;;;;;;;78.27;74.27;;;16.40;99.90;;;;;;4976890;28;20669;-82
2022/09/15 12:02:59;;;;;;;125.43;119.00;;;16.20;99.90;;;;;;4978096;28;20222;-80
2022/09/15 12:05:41;;;;;;;158.30;150.40;;;16.00;99.90;;;;;;4977129;28;20204;-82
2022/09/15 12:08:42;;;;;;;164.67;156.13;;;15.90;99.90;;;;;;4977897;28;20189;-81
2022/09/15 12:11:20;;;;;;;244.10;230.63;;;15.70;99.90;;;;;;4968758;28;20194;-80
2022/09/15 12:13:47;;;;;;;239.23;226.33;;;15.70;99.90;;;;;;4966232;28;20238;-81
2022/09/15 12:16:15;;;;;;;103.83;98.57;;;15.80;99.90;;;;;;4962433;28;20202;-81
2022/09/15 12:19:01;;;;;;;75.00;71.27;;;15.80;99.90;;;;;;4956449;28;20192;-79
2022/09/15 12:21:45;;;;;;;280.00;265.67;;;15.80;99.90;;;;;;4955672;28;20190;-80
2022/09/15 12:24:37;;;;;;;272.10;258.30;;;15.70;99.90;;;;;;4985598;28;20201;-79
2022/09/15 12:27:03;;;;;;;229.47;217.80;;;15.70;99.90;;;;;;4978349;28;20184;-84
2022/09/15 12:29:37;;;;;;;107.70;102.20;;;15.70;99.90;;;;;;4980039;28;20240;-82
2022/09/15 12:32:17;;;;;;;44.40;42.00;;;15.70;99.90;;;;;;4981941;28;20184;-81
2022/09/15 12:34:59;;;;;;;281.23;266.53;;;15.80;99.90;;;;;;4982512;28;20188;-79
2022/09/15 12:37:51;;;;;;;45.67;43.23;;;15.80;99.90;;;;;;4979239;28;20204;-79
2022/09/15 12:40:32;;;;;;;16.60;15.60;;;15.80;99.90;;;;;;4977845;28;20686;-81
2022/09/15 12:43:00;;;;;;;64.70;60.73;;;15.70;99.90;;;;;;4976291;28;20205;-81
2022/09/15 12:45:29;;;;;;;111.33;105.43;;;15.70;99.90;;;;;;4980419;28;20181;-79